sensor_id;sensor_type;location;lat;lon;timestamp;pressure;altitude;pressure_sealevel;temperature;humidity
21361;BME280;10839;43.206;23.550;2023-12-22T00:00:17;95409.94;;;5.81;61.87
21361;BME280;10839;43.206;23.550;2023-12-22T00:02:42;95403.16;;;5.98;61.60
21361;BME280;10839;43.206;23.550;2023-12-22T00:05:08;95395.88;;;6.31;60.53
21361;BME280;10839;43.206;23.550;2023-12-22T00:07:33;95399.69;;;6.48;59.83
21361;BME280;10839;43.206;23.550;2023-12-22T00:09:59;95386.78;;;6.45;60.43
21361;BME280;10839;43.206;23.550;2023-12-22T00:12:24;95403.28;;;6.73;60.01
21361;BME280;10839;43.206;23.550;2023-12-22T00:14:50;95394.06;;;7.00;59.42
21361;BME280;10839;43.206;23.550;2023-12-22T00:17:15;95397.50;;;7.07;59.17
21361;BME280;10839;43.206;23.550;2023-12-22T00:19:41;95385.06;;;7.19;59.41
21361;BME280;10839;43.206;23.550;2023-12-22T00:22:06;95383.22;;;7.44;58.58
21361;BME280;10839;43.206;23.550;2023-12-22T00:24:32;95385.81;;;7.75;57.93
21361;BME280;10839;43.206;23.550;2023-12-22T00:26:57;95367.22;;;8.23;56.97
21361;BME280;10839;43.206;23.550;2023-12-22T00:29:23;95367.09;;;8.66;55.66
21361;BME280;10839;43.206;23.550;2023-12-22T00:31:48;95384.28;;;8.04;57.37
21361;BME280;10839;43.206;23.550;2023-12-22T00:34:14;95373.97;;;8.44;57.23
21361;BME280;10839;43.206;23.550;2023-12-22T00:36:39;95375.88;;;9.14;54.40
21361;BME280;10839;43.206;23.550;2023-12-22T00:39:05;95373.19;;;8.73;55.99
21361;BME280;10839;43.206;23.550;2023-12-22T00:41:30;95388.25;;;8.56;56.54
21361;BME280;10839;43.206;23.550;2023-12-22T00:43:56;95386.47;;;8.32;57.06
21361;BME280;10839;43.206;23.550;2023-12-22T00:46:21;95386.34;;;8.27;57.19
21361;BME280;10839;43.206;23.550;2023-12-22T00:48:46;95393.16;;;8.23;57.72
21361;BME280;10839;43.206;23.550;2023-12-22T00:51:12;95392.72;;;8.26;57.64
21361;BME280;10839;43.206;23.550;2023-12-22T00:53:37;95377.28;;;8.87;55.04
21361;BME280;10839;43.206;23.550;2023-12-22T00:56:03;95370.31;;;9.27;53.90
21361;BME280;10839;43.206;23.550;2023-12-22T00:58:30;95361.00;;;9.41;53.25
21361;BME280;10839;43.206;23.550;2023-12-22T01:00:55;95353.94;;;9.17;53.79
21361;BME280;10839;43.206;23.550;2023-12-22T01:03:21;95389.22;;;9.32;53.67
21361;BME280;10839;43.206;23.550;2023-12-22T01:05:46;95389.50;;;9.65;52.56
21361;BME280;10839;43.206;23.550;2023-12-22T01:08:12;95391.50;;;9.17;54.83
21361;BME280;10839;43.206;23.550;2023-12-22T01:10:37;95390.88;;;8.74;56.22
21361;BME280;10839;43.206;23.550;2023-12-22T01:13:03;95399.88;;;9.09;54.94
21361;BME280;10839;43.206;23.550;2023-12-22T01:15:28;95389.03;;;9.04;54.63
21361;BME280;10839;43.206;23.550;2023-12-22T01:17:54;95390.59;;;9.23;53.29
21361;BME280;10839;43.206;23.550;2023-12-22T01:20:19;95380.09;;;9.22;53.74
21361;BME280;10839;43.206;23.550;2023-12-22T01:22:45;95380.06;;;9.10;53.62
21361;BME280;10839;43.206;23.550;2023-12-22T01:25:10;95368.22;;;9.29;53.07
21361;BME280;10839;43.206;23.550;2023-12-22T01:27:36;95365.19;;;9.37;53.27
21361;BME280;10839;43.206;23.550;2023-12-22T01:30:01;95362.06;;;9.75;52.16
21361;BME280;10839;43.206;23.550;2023-12-22T01:32:27;95351.00;;;9.71;52.24
21361;BME280;10839;43.206;23.550;2023-12-22T01:34:58;95347.47;;;9.82;51.09
21361;BME280;10839;43.206;23.550;2023-12-22T01:37:25;95351.66;;;9.78;51.47
21361;BME280;10839;43.206;23.550;2023-12-22T01:39:50;95344.19;;;9.80;51.27
21361;BME280;10839;43.206;23.550;2023-12-22T01:42:16;95354.59;;;9.88;51.72
21361;BME280;10839;43.206;23.550;2023-12-22T01:44:41;95343.16;;;9.70;52.13
21361;BME280;10839;43.206;23.550;2023-12-22T01:47:07;95354.22;;;9.73;52.15
21361;BME280;10839;43.206;23.550;2023-12-22T01:49:32;95354.47;;;9.60;52.75
21361;BME280;10839;43.206;23.550;2023-12-22T01:51:58;95338.47;;;9.65;52.56
21361;BME280;10839;43.206;23.550;2023-12-22T01:54:24;95345.81;;;10.04;51.24
21361;BME280;10839;43.206;23.550;2023-12-22T01:56:50;95338.13;;;10.59;49.77
21361;BME280;10839;43.206;23.550;2023-12-22T01:59:15;95342.41;;;10.32;50.45
21361;BME280;10839;43.206;23.550;2023-12-22T02:01:41;95330.97;;;10.25;50.72
21361;BME280;10839;43.206;23.550;2023-12-22T02:04:09;95328.50;;;10.23;50.94
21361;BME280;10839;43.206;23.550;2023-12-22T02:06:35;95330.78;;;10.55;50.61
21361;BME280;10839;43.206;23.550;2023-12-22T02:09:01;95334.22;;;10.67;49.50
21361;BME280;10839;43.206;23.550;2023-12-22T02:11:27;95336.69;;;10.28;50.46
21361;BME280;10839;43.206;23.550;2023-12-22T02:13:52;95321.53;;;10.22;50.47
21361;BME280;10839;43.206;23.550;2023-12-22T02:16:28;95329.03;;;10.09;50.78
21361;BME280;10839;43.206;23.550;2023-12-22T02:18:57;95316.63;;;10.59;50.15
21361;BME280;10839;43.206;23.550;2023-12-22T02:21:24;95312.41;;;10.52;50.01
21361;BME280;10839;43.206;23.550;2023-12-22T02:23:50;95313.56;;;10.27;50.93
21361;BME280;10839;43.206;23.550;2023-12-22T02:26:27;95311.94;;;10.03;51.68
21361;BME280;10839;43.206;23.550;2023-12-22T02:28:57;95319.09;;;9.98;51.71
21361;BME280;10839;43.206;23.550;2023-12-22T02:31:33;95324.03;;;10.41;50.88
21361;BME280;10839;43.206;23.550;2023-12-22T02:34:04;95316.91;;;10.46;50.73
21361;BME280;10839;43.206;23.550;2023-12-22T02:36:35;95319.88;;;10.21;51.86
21361;BME280;10839;43.206;23.550;2023-12-22T02:39:01;95312.81;;;10.44;51.17
21361;BME280;10839;43.206;23.550;2023-12-22T02:41:27;95309.53;;;10.70;51.03
21361;BME280;10839;43.206;23.550;2023-12-22T02:43:53;95321.34;;;10.41;51.18
21361;BME280;10839;43.206;23.550;2023-12-22T02:46:18;95308.19;;;10.27;52.08
21361;BME280;10839;43.206;23.550;2023-12-22T02:48:44;95321.84;;;10.66;51.20
21361;BME280;10839;43.206;23.550;2023-12-22T02:51:09;95314.97;;;10.18;52.19
21361;BME280;10839;43.206;23.550;2023-12-22T02:53:35;95302.75;;;9.88;53.54
21361;BME280;10839;43.206;23.550;2023-12-22T02:56:00;95306.09;;;10.29;52.88
21361;BME280;10839;43.206;23.550;2023-12-22T02:58:26;95297.63;;;10.38;52.70
21361;BME280;10839;43.206;23.550;2023-12-22T03:00:51;95309.38;;;10.08;53.94
21361;BME280;10839;43.206;23.550;2023-12-22T03:03:17;95300.53;;;10.08;54.48
21361;BME280;10839;43.206;23.550;2023-12-22T03:05:42;95307.69;;;10.30;54.26
21361;BME280;10839;43.206;23.550;2023-12-22T03:08:07;95315.19;;;10.28;54.80
21361;BME280;10839;43.206;23.550;2023-12-22T03:10:33;95303.28;;;10.01;56.02
21361;BME280;10839;43.206;23.550;2023-12-22T03:12:58;95299.06;;;10.28;55.66
21361;BME280;10839;43.206;23.550;2023-12-22T03:15:24;95296.19;;;10.47;55.30
21361;BME280;10839;43.206;23.550;2023-12-22T03:17:49;95292.22;;;9.98;56.44
21361;BME280;10839;43.206;23.550;2023-12-22T03:20:15;95297.50;;;9.81;57.55
21361;BME280;10839;43.206;23.550;2023-12-22T03:22:40;95294.25;;;10.30;57.00
21361;BME280;10839;43.206;23.550;2023-12-22T03:25:06;95305.41;;;10.22;57.42
21361;BME280;10839;43.206;23.550;2023-12-22T03:27:31;95299.34;;;9.92;59.46
21361;BME280;10839;43.206;23.550;2023-12-22T03:29:57;95291.38;;;10.20;59.66
21361;BME280;10839;43.206;23.550;2023-12-22T03:32:22;95263.72;;;10.37;59.49
21361;BME280;10839;43.206;23.550;2023-12-22T03:34:48;95272.50;;;9.92;60.65
21361;BME280;10839;43.206;23.550;2023-12-22T03:37:13;95272.38;;;9.87;62.34
21361;BME280;10839;43.206;23.550;2023-12-22T03:39:39;95261.63;;;10.39;61.25
21361;BME280;10839;43.206;23.550;2023-12-22T03:42:04;95275.72;;;10.17;62.28
21361;BME280;10839;43.206;23.550;2023-12-22T03:44:31;95269.22;;;9.90;63.82
21361;BME280;10839;43.206;23.550;2023-12-22T03:46:56;95279.22;;;10.29;63.53
21361;BME280;10839;43.206;23.550;2023-12-22T03:49:22;95267.38;;;10.30;63.62
21361;BME280;10839;43.206;23.550;2023-12-22T03:51:47;95256.94;;;10.06;65.39
21361;BME280;10839;43.206;23.550;2023-12-22T03:54:13;95256.81;;;10.12;66.17
21361;BME280;10839;43.206;23.550;2023-12-22T03:56:41;95257.03;;;10.22;66.82
21361;BME280;10839;43.206;23.550;2023-12-22T03:59:06;95245.41;;;9.82;68.16
21361;BME280;10839;43.206;23.550;2023-12-22T04:01:32;95242.88;;;9.64;69.95
21361;BME280;10839;43.206;23.550;2023-12-22T04:03:57;95234.16;;;10.08;68.93
21361;BME280;10839;43.206;23.550;2023-12-22T04:06:23;95210.03;;;9.85;70.04
21361;BME280;10839;43.206;23.550;2023-12-22T04:08:48;95212.06;;;9.55;71.62
21361;BME280;10839;43.206;23.550;2023-12-22T04:11:14;95190.13;;;9.70;71.19
21361;BME280;10839;43.206;23.550;2023-12-22T04:13:39;95208.41;;;9.84;70.71
21361;BME280;10839;43.206;23.550;2023-12-22T04:16:05;95201.06;;;9.68;71.09
21361;BME280;10839;43.206;23.550;2023-12-22T04:18:30;95181.63;;;9.50;72.53
21361;BME280;10839;43.206;23.550;2023-12-22T04:20:57;95181.25;;;9.69;71.88
21361;BME280;10839;43.206;23.550;2023-12-22T04:23:22;95171.84;;;9.83;70.71
21361;BME280;10839;43.206;23.550;2023-12-22T04:25:48;95160.47;;;9.53;72.24
21361;BME280;10839;43.206;23.550;2023-12-22T04:28:13;95162.25;;;9.48;72.35
21361;BME280;10839;43.206;23.550;2023-12-22T04:30:39;95164.03;;;9.82;70.58
21361;BME280;10839;43.206;23.550;2023-12-22T04:33:05;95165.13;;;9.69;70.46
21361;BME280;10839;43.206;23.550;2023-12-22T04:35:30;95163.75;;;9.55;70.89
21361;BME280;10839;43.206;23.550;2023-12-22T04:37:56;95176.44;;;9.71;70.03
21361;BME280;10839;43.206;23.550;2023-12-22T04:40:21;95196.69;;;9.90;69.30
21361;BME280;10839;43.206;23.550;2023-12-22T04:42:47;95206.44;;;9.68;70.03
21361;BME280;10839;43.206;23.550;2023-12-22T04:45:12;95197.00;;;9.66;70.29
21361;BME280;10839;43.206;23.550;2023-12-22T04:47:38;95198.44;;;9.96;68.28
21361;BME280;10839;43.206;23.550;2023-12-22T04:50:04;95212.22;;;9.88;68.35
21361;BME280;10839;43.206;23.550;2023-12-22T04:52:29;95207.59;;;9.72;69.33
21361;BME280;10839;43.206;23.550;2023-12-22T04:54:55;95194.88;;;9.79;69.52
21361;BME280;10839;43.206;23.550;2023-12-22T04:57:21;95195.66;;;9.91;68.80
21361;BME280;10839;43.206;23.550;2023-12-22T04:59:47;95209.50;;;9.60;70.26
21361;BME280;10839;43.206;23.550;2023-12-22T05:02:13;95207.19;;;9.52;70.27
21361;BME280;10839;43.206;23.550;2023-12-22T05:04:38;95199.19;;;9.80;68.55
21361;BME280;10839;43.206;23.550;2023-12-22T05:07:04;95189.13;;;9.87;67.71
21361;BME280;10839;43.206;23.550;2023-12-22T05:09:33;95191.38;;;9.67;68.79
21361;BME280;10839;43.206;23.550;2023-12-22T05:11:59;95200.00;;;9.81;69.19
21361;BME280;10839;43.206;23.550;2023-12-22T05:14:24;95188.56;;;10.13;66.97
21361;BME280;10839;43.206;23.550;2023-12-22T05:16:50;95181.66;;;9.89;67.41
21361;BME280;10839;43.206;23.550;2023-12-22T05:19:20;95198.91;;;9.93;67.34
21361;BME280;10839;43.206;23.550;2023-12-22T05:21:45;95194.44;;;10.10;66.21
21361;BME280;10839;43.206;23.550;2023-12-22T05:24:11;95202.09;;;10.18;65.49
21361;BME280;10839;43.206;23.550;2023-12-22T05:26:36;95198.13;;;10.21;65.52
21361;BME280;10839;43.206;23.550;2023-12-22T05:29:02;95209.50;;;10.40;64.88
21361;BME280;10839;43.206;23.550;2023-12-22T05:31:27;95209.03;;;10.43;64.00
21361;BME280;10839;43.206;23.550;2023-12-22T05:33:53;95210.31;;;10.40;64.19
21361;BME280;10839;43.206;23.550;2023-12-22T05:36:19;95214.59;;;10.53;64.04
21361;BME280;10839;43.206;23.550;2023-12-22T05:38:45;95212.97;;;10.85;62.56
21361;BME280;10839;43.206;23.550;2023-12-22T05:41:13;95204.34;;;10.66;63.25
21361;BME280;10839;43.206;23.550;2023-12-22T05:43:38;95208.75;;;10.72;62.83
21361;BME280;10839;43.206;23.550;2023-12-22T05:46:04;95214.28;;;10.99;61.61
21361;BME280;10839;43.206;23.550;2023-12-22T05:48:29;95206.47;;;10.81;62.16
21361;BME280;10839;43.206;23.550;2023-12-22T05:50:58;95207.09;;;10.55;63.16
21361;BME280;10839;43.206;23.550;2023-12-22T05:53:23;95215.66;;;10.85;62.47
21361;BME280;10839;43.206;23.550;2023-12-22T05:55:49;95209.72;;;10.99;61.53
21361;BME280;10839;43.206;23.550;2023-12-22T05:58:14;95195.88;;;10.74;62.16
21361;BME280;10839;43.206;23.550;2023-12-22T06:00:40;95198.81;;;11.06;61.47
21361;BME280;10839;43.206;23.550;2023-12-22T06:03:06;95187.66;;;11.35;60.19
21361;BME280;10839;43.206;23.550;2023-12-22T06:05:31;95180.84;;;10.78;62.31
21361;BME280;10839;43.206;23.550;2023-12-22T06:07:57;95194.06;;;10.80;62.61
21361;BME280;10839;43.206;23.550;2023-12-22T06:10:22;95192.44;;;11.12;61.92
21361;BME280;10839;43.206;23.550;2023-12-22T06:12:47;95203.84;;;10.86;62.45
21361;BME280;10839;43.206;23.550;2023-12-22T06:15:13;95191.59;;;10.62;63.39
21361;BME280;10839;43.206;23.550;2023-12-22T06:17:38;95184.59;;;10.94;62.44
21361;BME280;10839;43.206;23.550;2023-12-22T06:20:04;95181.84;;;10.89;62.68
21361;BME280;10839;43.206;23.550;2023-12-22T06:22:30;95187.22;;;10.56;63.42
21361;BME280;10839;43.206;23.550;2023-12-22T06:24:55;95190.31;;;10.81;63.61
21361;BME280;10839;43.206;23.550;2023-12-22T06:27:21;95195.53;;;11.20;61.44
21361;BME280;10839;43.206;23.550;2023-12-22T06:29:46;95202.94;;;10.97;62.68
21361;BME280;10839;43.206;23.550;2023-12-22T06:32:12;95205.16;;;10.83;63.19
21361;BME280;10839;43.206;23.550;2023-12-22T06:34:37;95206.47;;;11.14;62.32
21361;BME280;10839;43.206;23.550;2023-12-22T06:37:03;95213.63;;;10.92;62.95
21361;BME280;10839;43.206;23.550;2023-12-22T06:39:28;95202.19;;;10.52;64.46
21361;BME280;10839;43.206;23.550;2023-12-22T06:41:54;95222.28;;;10.94;63.60
21361;BME280;10839;43.206;23.550;2023-12-22T06:44:19;95197.66;;;11.02;63.42
21361;BME280;10839;43.206;23.550;2023-12-22T06:46:45;95201.72;;;10.55;65.28
21361;BME280;10839;43.206;23.550;2023-12-22T06:49:10;95215.91;;;10.67;65.40
21361;BME280;10839;43.206;23.550;2023-12-22T06:51:36;95190.16;;;11.04;63.58
21361;BME280;10839;43.206;23.550;2023-12-22T06:54:02;95206.13;;;10.94;63.97
21361;BME280;10839;43.206;23.550;2023-12-22T06:56:34;95207.66;;;10.90;64.24
21361;BME280;10839;43.206;23.550;2023-12-22T06:59:00;95222.59;;;11.30;62.85
21361;BME280;10839;43.206;23.550;2023-12-22T07:01:28;95218.19;;;11.41;61.66
21361;BME280;10839;43.206;23.550;2023-12-22T07:03:54;95229.94;;;11.18;62.56
21361;BME280;10839;43.206;23.550;2023-12-22T07:06:21;95241.50;;;11.52;61.73
21361;BME280;10839;43.206;23.550;2023-12-22T07:11:27;95245.34;;;11.39;61.75
21361;BME280;10839;43.206;23.550;2023-12-22T07:13:53;95258.47;;;11.69;61.07
21361;BME280;10839;43.206;23.550;2023-12-22T07:16:19;95267.38;;;11.91;60.32
21361;BME280;10839;43.206;23.550;2023-12-22T07:18:44;95273.00;;;11.35;62.39
21361;BME280;10839;43.206;23.550;2023-12-22T07:21:16;95261.72;;;11.54;62.00
21361;BME280;10839;43.206;23.550;2023-12-22T07:23:41;95266.28;;;11.87;60.59
21361;BME280;10839;43.206;23.550;2023-12-22T07:26:09;95272.81;;;11.58;61.73
21361;BME280;10839;43.206;23.550;2023-12-22T07:28:38;95273.16;;;11.45;62.40
21361;BME280;10839;43.206;23.550;2023-12-22T07:31:04;95275.06;;;11.99;60.69
21361;BME280;10839;43.206;23.550;2023-12-22T07:33:30;95281.22;;;11.78;61.19
21361;BME280;10839;43.206;23.550;2023-12-22T07:35:56;95283.28;;;11.38;62.36
21361;BME280;10839;43.206;23.550;2023-12-22T07:38:21;95299.97;;;11.90;61.30
21361;BME280;10839;43.206;23.550;2023-12-22T07:40:47;95289.50;;;11.93;61.38
21361;BME280;10839;43.206;23.550;2023-12-22T07:43:12;95300.75;;;11.52;62.49
21361;BME280;10839;43.206;23.550;2023-12-22T07:45:38;95306.13;;;11.85;61.29
21361;BME280;10839;43.206;23.550;2023-12-22T07:48:04;95311.16;;;11.98;60.82
21361;BME280;10839;43.206;23.550;2023-12-22T07:50:30;95330.13;;;11.37;62.99
21361;BME280;10839;43.206;23.550;2023-12-22T07:52:55;95346.81;;;11.67;63.49
21361;BME280;10839;43.206;23.550;2023-12-22T07:55:20;95350.22;;;11.79;65.74
21361;BME280;10839;43.206;23.550;2023-12-22T07:57:46;95353.41;;;11.15;70.74
21361;BME280;10839;43.206;23.550;2023-12-22T08:00:12;95373.22;;;11.09;74.01
21361;BME280;10839;43.206;23.550;2023-12-22T08:02:38;95373.19;;;11.37;76.07
21361;BME280;10839;43.206;23.550;2023-12-22T08:05:04;95380.25;;;10.82;80.77
21361;BME280;10839;43.206;23.550;2023-12-22T08:07:29;95389.47;;;10.58;84.11
21361;BME280;10839;43.206;23.550;2023-12-22T08:09:56;95396.38;;;10.82;85.19
21361;BME280;10839;43.206;23.550;2023-12-22T08:12:28;95403.88;;;10.80;87.13
21361;BME280;10839;43.206;23.550;2023-12-22T08:14:54;95404.25;;;10.20;91.84
21361;BME280;10839;43.206;23.550;2023-12-22T08:17:19;95395.56;;;10.42;90.29
21361;BME280;10839;43.206;23.550;2023-12-22T08:19:45;95396.13;;;10.55;88.97
21361;BME280;10839;43.206;23.550;2023-12-22T08:22:11;95413.81;;;10.16;92.12
21361;BME280;10839;43.206;23.550;2023-12-22T08:24:38;95408.41;;;9.93;91.24
21361;BME280;10839;43.206;23.550;2023-12-22T08:27:07;95417.41;;;10.45;89.24
21361;BME280;10839;43.206;23.550;2023-12-22T08:29:33;95433.34;;;10.12;91.24
21361;BME280;10839;43.206;23.550;2023-12-22T08:31:59;95439.84;;;9.70;98.12
21361;BME280;10839;43.206;23.550;2023-12-22T08:34:26;95451.88;;;9.90;95.21
21361;BME280;10839;43.206;23.550;2023-12-22T08:36:51;95461.78;;;10.01;98.10
21361;BME280;10839;43.206;23.550;2023-12-22T08:39:17;95458.69;;;9.52;100.00
21361;BME280;10839;43.206;23.550;2023-12-22T08:41:42;95460.13;;;9.54;100.00
21361;BME280;10839;43.206;23.550;2023-12-22T08:44:08;95454.66;;;9.72;100.00
21361;BME280;10839;43.206;23.550;2023-12-22T08:46:34;95468.38;;;9.41;100.00
21361;BME280;10839;43.206;23.550;2023-12-22T08:49:00;95469.06;;;8.89;100.00
21361;BME280;10839;43.206;23.550;2023-12-22T08:51:26;95464.81;;;9.29;100.00
21361;BME280;10839;43.206;23.550;2023-12-22T08:53:52;95464.09;;;9.22;100.00
21361;BME280;10839;43.206;23.550;2023-12-22T08:56:20;95445.81;;;9.01;100.00
21361;BME280;10839;43.206;23.550;2023-12-22T08:58:46;95442.00;;;9.38;100.00
21361;BME280;10839;43.206;23.550;2023-12-22T09:01:15;95435.72;;;9.67;100.00
21361;BME280;10839;43.206;23.550;2023-12-22T09:03:41;95423.38;;;9.25;100.00
21361;BME280;10839;43.206;23.550;2023-12-22T09:06:14;95415.59;;;9.35;99.70
21361;BME280;10839;43.206;23.550;2023-12-22T09:08:44;95421.72;;;9.88;98.32
21361;BME280;10839;43.206;23.550;2023-12-22T09:11:15;95415.22;;;10.07;96.35
21361;BME280;10839;43.206;23.550;2023-12-22T09:13:40;95406.44;;;9.89;96.97
21361;BME280;10839;43.206;23.550;2023-12-22T09:16:07;95404.78;;;10.46;92.50
21361;BME280;10839;43.206;23.550;2023-12-22T09:18:33;95401.47;;;10.95;85.95
21361;BME280;10839;43.206;23.550;2023-12-22T09:20:59;95397.16;;;10.66;84.61
21361;BME280;10839;43.206;23.550;2023-12-22T09:23:25;95390.53;;;10.85;83.09
21361;BME280;10839;43.206;23.550;2023-12-22T09:25:50;95395.91;;;11.41;81.50
21361;BME280;10839;43.206;23.550;2023-12-22T09:28:16;95395.16;;;11.01;79.90
21361;BME280;10839;43.206;23.550;2023-12-22T09:30:41;95395.44;;;10.88;82.18
21361;BME280;10839;43.206;23.550;2023-12-22T09:33:08;95390.19;;;11.54;74.44
21361;BME280;10839;43.206;23.550;2023-12-22T09:35:34;95382.72;;;11.73;73.94
21361;BME280;10839;43.206;23.550;2023-12-22T09:38:00;95394.91;;;11.47;75.10
21361;BME280;10839;43.206;23.550;2023-12-22T09:40:26;95403.00;;;12.51;70.27
21361;BME280;10839;43.206;23.550;2023-12-22T09:42:54;95378.66;;;12.89;68.50
21361;BME280;10839;43.206;23.550;2023-12-22T09:45:21;95387.97;;;12.99;68.02
21361;BME280;10839;43.206;23.550;2023-12-22T09:47:47;95374.16;;;13.75;62.66
21361;BME280;10839;43.206;23.550;2023-12-22T09:50:14;95374.47;;;14.15;59.00
21361;BME280;10839;43.206;23.550;2023-12-22T09:52:42;95392.38;;;13.58;61.25
21361;BME280;10839;43.206;23.550;2023-12-22T09:55:09;95386.25;;;14.04;60.28
21361;BME280;10839;43.206;23.550;2023-12-22T09:57:35;95381.72;;;15.08;56.08
21361;BME280;10839;43.206;23.550;2023-12-22T10:00:03;95372.13;;;14.29;54.76
21361;BME280;10839;43.206;23.550;2023-12-22T10:02:33;95372.66;;;13.89;57.40
21361;BME280;10839;43.206;23.550;2023-12-22T10:04:58;95363.13;;;15.42;54.65
21361;BME280;10839;43.206;23.550;2023-12-22T10:07:25;95358.25;;;15.94;50.94
21361;BME280;10839;43.206;23.550;2023-12-22T10:09:52;95336.00;;;15.31;52.74
21361;BME280;10839;43.206;23.550;2023-12-22T10:12:19;95331.69;;;16.01;51.04
21361;BME280;10839;43.206;23.550;2023-12-22T10:14:46;95332.50;;;15.41;49.76
21361;BME280;10839;43.206;23.550;2023-12-22T10:17:12;95321.75;;;14.74;52.21
21361;BME280;10839;43.206;23.550;2023-12-22T10:19:39;95318.81;;;16.62;48.51
21361;BME280;10839;43.206;23.550;2023-12-22T10:22:04;95316.66;;;17.12;46.09
21361;BME280;10839;43.206;23.550;2023-12-22T10:24:41;95317.94;;;18.31;44.78
21361;BME280;10839;43.206;23.550;2023-12-22T10:27:12;95332.47;;;18.73;43.12
21361;BME280;10839;43.206;23.550;2023-12-22T10:29:38;95338.63;;;18.84;43.01
21361;BME280;10839;43.206;23.550;2023-12-22T10:32:05;95333.78;;;16.39;45.60
21361;BME280;10839;43.206;23.550;2023-12-22T10:34:31;95335.94;;;16.52;44.86
21361;BME280;10839;43.206;23.550;2023-12-22T10:36:59;95337.59;;;16.38;45.42
21361;BME280;10839;43.206;23.550;2023-12-22T10:39:28;95313.59;;;14.69;48.38
21361;BME280;10839;43.206;23.550;2023-12-22T10:42:00;95309.41;;;15.18;47.86
21361;BME280;10839;43.206;23.550;2023-12-22T10:44:29;95298.59;;;15.23;48.01
21361;BME280;10839;43.206;23.550;2023-12-22T10:46:57;95304.97;;;14.21;51.15
21361;BME280;10839;43.206;23.550;2023-12-22T10:49:24;95306.41;;;13.55;51.40
21361;BME280;10839;43.206;23.550;2023-12-22T10:51:50;95309.13;;;13.23;53.86
21361;BME280;10839;43.206;23.550;2023-12-22T10:54:17;95303.00;;;13.69;53.90
21361;BME280;10839;43.206;23.550;2023-12-22T10:56:43;95303.19;;;14.36;51.05
21361;BME280;10839;43.206;23.550;2023-12-22T10:59:09;95294.81;;;13.96;51.67
21361;BME280;10839;43.206;23.550;2023-12-22T11:01:38;95292.34;;;14.36;50.20
21361;BME280;10839;43.206;23.550;2023-12-22T11:04:09;95290.47;;;15.79;47.71
21361;BME280;10839;43.206;23.550;2023-12-22T11:06:41;95280.13;;;15.00;47.98
21361;BME280;10839;43.206;23.550;2023-12-22T11:09:09;95283.00;;;14.07;49.67
21361;BME280;10839;43.206;23.550;2023-12-22T11:11:36;95286.94;;;13.89;50.93
21361;BME280;10839;43.206;23.550;2023-12-22T11:14:03;95296.38;;;15.15;47.43
21361;BME280;10839;43.206;23.550;2023-12-22T11:16:29;95297.78;;;15.33;47.74
21361;BME280;10839;43.206;23.550;2023-12-22T11:18:55;95318.00;;;16.61;44.92
21361;BME280;10839;43.206;23.550;2023-12-22T11:21:22;95321.53;;;17.15;43.73
21361;BME280;10839;43.206;23.550;2023-12-22T11:23:53;95315.94;;;16.08;45.77
21361;BME280;10839;43.206;23.550;2023-12-22T11:26:20;95309.00;;;17.24;43.66
21361;BME280;10839;43.206;23.550;2023-12-22T11:28:47;95313.75;;;17.42;42.76
21361;BME280;10839;43.206;23.550;2023-12-22T11:31:14;95316.44;;;16.50;45.37
21361;BME280;10839;43.206;23.550;2023-12-22T11:33:49;95333.25;;;17.59;43.88
21361;BME280;10839;43.206;23.550;2023-12-22T11:36:16;95326.97;;;17.98;42.99
21361;BME280;10839;43.206;23.550;2023-12-22T11:38:43;95326.19;;;16.51;45.66
21361;BME280;10839;43.206;23.550;2023-12-22T11:41:12;95312.31;;;17.16;44.36
21361;BME280;10839;43.206;23.550;2023-12-22T11:43:40;95311.47;;;17.21;44.84
21361;BME280;10839;43.206;23.550;2023-12-22T11:46:06;95306.09;;;16.32;46.91
21361;BME280;10839;43.206;23.550;2023-12-22T11:48:32;95293.94;;;16.98;45.90
21361;BME280;10839;43.206;23.550;2023-12-22T11:50:58;95314.78;;;16.34;45.91
21361;BME280;10839;43.206;23.550;2023-12-22T11:53:30;95319.31;;;14.73;50.49
21361;BME280;10839;43.206;23.550;2023-12-22T11:56:07;95314.75;;;14.88;49.99
21361;BME280;10839;43.206;23.550;2023-12-22T11:58:41;95312.03;;;14.78;49.53
21361;BME280;10839;43.206;23.550;2023-12-22T12:03:48;95309.66;;;12.99;55.21
21361;BME280;10839;43.206;23.550;2023-12-22T12:09:00;95318.78;;;12.93;55.52
21361;BME280;10839;43.206;23.550;2023-12-22T12:14:32;95319.06;;;12.26;59.51
21361;BME280;10839;43.206;23.550;2023-12-22T12:17:07;95311.03;;;12.53;57.98
21361;BME280;10839;43.206;23.550;2023-12-22T12:19:40;95317.22;;;11.89;59.86
21361;BME280;10839;43.206;23.550;2023-12-22T12:22:19;95325.56;;;11.87;61.12
21361;BME280;10839;43.206;23.550;2023-12-22T12:24:50;95335.13;;;12.16;60.88
21361;BME280;10839;43.206;23.550;2023-12-22T12:27:21;95337.09;;;11.66;62.86
21361;BME280;10839;43.206;23.550;2023-12-22T12:29:47;95344.22;;;11.27;63.67
21361;BME280;10839;43.206;23.550;2023-12-22T12:32:15;95344.75;;;11.74;62.15
21361;BME280;10839;43.206;23.550;2023-12-22T12:34:45;95361.69;;;11.58;62.90
21361;BME280;10839;43.206;23.550;2023-12-22T12:37:12;95358.97;;;11.25;64.86
21361;BME280;10839;43.206;23.550;2023-12-22T12:39:39;95346.25;;;11.20;65.47
21361;BME280;10839;43.206;23.550;2023-12-22T12:42:07;95342.78;;;11.70;63.81
21361;BME280;10839;43.206;23.550;2023-12-22T12:44:34;95322.59;;;11.22;64.49
21361;BME280;10839;43.206;23.550;2023-12-22T12:47:11;95312.75;;;10.83;66.46
21361;BME280;10839;43.206;23.550;2023-12-22T12:49:38;95321.28;;;11.25;66.37
21361;BME280;10839;43.206;23.550;2023-12-22T12:52:04;95333.56;;;11.32;65.88
21361;BME280;10839;43.206;23.550;2023-12-22T12:54:31;95343.28;;;11.05;65.10
21361;BME280;10839;43.206;23.550;2023-12-22T12:56:56;95352.84;;;10.85;66.85
21361;BME280;10839;43.206;23.550;2023-12-22T12:59:22;95349.69;;;11.16;65.64